sensor_id;sensor_type;location;lat;lon;timestamp;pressure;altitude;pressure_sealevel;temperature;humidity
5952;BME280;3001;42.622;23.194;2023-04-10T00:01:04;91293.50;;;8.70;80.19
5952;BME280;3001;42.622;23.194;2023-04-10T00:03:31;91294.81;;;8.67;80.53
5952;BME280;3001;42.622;23.194;2023-04-10T00:05:58;91295.41;;;8.64;80.67
5952;BME280;3001;42.622;23.194;2023-04-10T00:08:25;91291.38;;;8.72;81.62
5952;BME280;3001;42.622;23.194;2023-04-10T00:10:51;91291.38;;;8.72;80.18
5952;BME280;3001;42.622;23.194;2023-04-10T00:13:19;91284.47;;;8.67;79.87
5952;BME280;3001;42.622;23.194;2023-04-10T00:15:46;91291.56;;;8.62;80.52
5952;BME280;3001;42.622;23.194;2023-04-10T00:18:15;91283.53;;;8.63;80.28
5952;BME280;3001;42.622;23.194;2023-04-10T00:20:42;91275.66;;;8.42;81.16
5952;BME280;3001;42.622;23.194;2023-04-10T00:23:08;91278.81;;;8.65;80.93
5952;BME280;3001;42.622;23.194;2023-04-10T00:25:35;91268.75;;;8.51;81.47
5952;BME280;3001;42.622;23.194;2023-04-10T00:28:01;91271.63;;;8.49;81.19
5952;BME280;3001;42.622;23.194;2023-04-10T00:30:28;91273.16;;;8.50;80.78
5952;BME280;3001;42.622;23.194;2023-04-10T00:32:55;91270.38;;;8.33;82.17
5952;BME280;3001;42.622;23.194;2023-04-10T00:35:23;91263.56;;;8.37;81.96
5952;BME280;3001;42.622;23.194;2023-04-10T00:37:49;91277.78;;;8.40;80.48
5952;BME280;3001;42.622;23.194;2023-04-10T00:40:18;91263.78;;;8.27;80.62
5952;BME280;3001;42.622;23.194;2023-04-10T00:42:46;91265.00;;;8.30;80.89
5952;BME280;3001;42.622;23.194;2023-04-10T00:45:12;91265.19;;;8.20;81.85
5952;BME280;3001;42.622;23.194;2023-04-10T00:47:39;91263.56;;;8.24;82.36
5952;BME280;3001;42.622;23.194;2023-04-10T00:50:06;91261.22;;;8.09;82.07
5952;BME280;3001;42.622;23.194;2023-04-10T00:52:34;91261.13;;;8.14;82.01
5952;BME280;3001;42.622;23.194;2023-04-10T00:55:02;91264.63;;;8.04;82.57
5952;BME280;3001;42.622;23.194;2023-04-10T00:57:29;91267.53;;;8.03;83.41
5952;BME280;3001;42.622;23.194;2023-04-10T00:59:56;91258.81;;;7.99;83.67
5952;BME280;3001;42.622;23.194;2023-04-10T01:02:23;91255.75;;;7.97;83.40
5952;BME280;3001;42.622;23.194;2023-04-10T01:04:50;91264.84;;;8.08;81.61
5952;BME280;3001;42.622;23.194;2023-04-10T01:07:23;91256.25;;;8.12;82.05
5952;BME280;3001;42.622;23.194;2023-04-10T01:09:59;91255.34;;;8.03;82.41
5952;BME280;3001;42.622;23.194;2023-04-10T01:12:41;91249.81;;;8.10;82.93
5952;BME280;3001;42.622;23.194;2023-04-10T01:15:13;91249.31;;;8.08;83.41
5952;BME280;3001;42.622;23.194;2023-04-10T01:17:45;91257.56;;;8.10;83.02
5952;BME280;3001;42.622;23.194;2023-04-10T01:20:19;91257.44;;;8.20;82.53
5952;BME280;3001;42.622;23.194;2023-04-10T01:23:08;91262.53;;;8.06;82.44
5952;BME280;3001;42.622;23.194;2023-04-10T01:25:43;91253.84;;;8.16;80.58
5952;BME280;3001;42.622;23.194;2023-04-10T01:30:58;91258.59;;;8.27;80.28
5952;BME280;3001;42.622;23.194;2023-04-10T01:33:31;91257.78;;;8.13;81.59
5952;BME280;3001;42.622;23.194;2023-04-10T01:36:02;91253.00;;;8.20;79.58
5952;BME280;3001;42.622;23.194;2023-04-10T01:38:30;91262.94;;;8.13;79.72
5952;BME280;3001;42.622;23.194;2023-04-10T01:40:59;91259.41;;;8.09;79.55
5952;BME280;3001;42.622;23.194;2023-04-10T01:43:27;91265.66;;;8.22;80.09
5952;BME280;3001;42.622;23.194;2023-04-10T01:45:54;91251.34;;;8.11;79.95
5952;BME280;3001;42.622;23.194;2023-04-10T01:48:24;91260.03;;;8.20;77.64
5952;BME280;3001;42.622;23.194;2023-04-10T01:50:51;91251.91;;;8.08;79.55
5952;BME280;3001;42.622;23.194;2023-04-10T01:53:19;91255.63;;;7.88;80.44
5952;BME280;3001;42.622;23.194;2023-04-10T01:55:46;91251.69;;;7.91;79.62
5952;BME280;3001;42.622;23.194;2023-04-10T01:58:13;91249.09;;;7.91;80.12
5952;BME280;3001;42.622;23.194;2023-04-10T02:00:41;91244.72;;;7.91;79.73
5952;BME280;3001;42.622;23.194;2023-04-10T02:03:08;91254.75;;;7.93;79.53
5952;BME280;3001;42.622;23.194;2023-04-10T02:05:44;91242.81;;;7.97;80.20
5952;BME280;3001;42.622;23.194;2023-04-10T02:08:15;91242.41;;;7.90;80.39
5952;BME280;3001;42.622;23.194;2023-04-10T02:10:49;91230.72;;;7.79;80.63
5952;BME280;3001;42.622;23.194;2023-04-10T02:13:20;91225.16;;;7.85;79.77
5952;BME280;3001;42.622;23.194;2023-04-10T02:15:49;91231.81;;;7.73;80.61
5952;BME280;3001;42.622;23.194;2023-04-10T02:18:17;91225.00;;;7.63;82.45
5952;BME280;3001;42.622;23.194;2023-04-10T02:20:46;91217.81;;;7.60;83.09
5952;BME280;3001;42.622;23.194;2023-04-10T02:23:14;91229.91;;;7.65;83.69
5952;BME280;3001;42.622;23.194;2023-04-10T02:25:42;91222.63;;;7.67;84.64
5952;BME280;3001;42.622;23.194;2023-04-10T02:28:08;91215.31;;;7.55;85.99
5952;BME280;3001;42.622;23.194;2023-04-10T02:30:35;91220.88;;;7.62;86.08
5952;BME280;3001;42.622;23.194;2023-04-10T02:33:03;91209.25;;;7.78;85.89
5952;BME280;3001;42.622;23.194;2023-04-10T02:35:30;91215.34;;;7.69;85.89
5952;BME280;3001;42.622;23.194;2023-04-10T02:37:58;91210.78;;;7.79;85.64
5952;BME280;3001;42.622;23.194;2023-04-10T02:40:25;91202.94;;;7.84;85.71
5952;BME280;3001;42.622;23.194;2023-04-10T02:42:51;91197.88;;;7.93;84.89
5952;BME280;3001;42.622;23.194;2023-04-10T02:45:18;91196.53;;;7.95;83.97
5952;BME280;3001;42.622;23.194;2023-04-10T02:47:45;91193.16;;;7.95;82.83
5952;BME280;3001;42.622;23.194;2023-04-10T02:50:11;91199.78;;;7.87;82.97
5952;BME280;3001;42.622;23.194;2023-04-10T02:52:38;91200.22;;;7.76;82.71
5952;BME280;3001;42.622;23.194;2023-04-10T02:55:08;91205.00;;;7.69;83.20
5952;BME280;3001;42.622;23.194;2023-04-10T02:57:35;91207.09;;;7.53;83.86
5952;BME280;3001;42.622;23.194;2023-04-10T03:00:02;91211.31;;;7.49;84.43
5952;BME280;3001;42.622;23.194;2023-04-10T03:02:29;91214.72;;;7.45;84.54
5952;BME280;3001;42.622;23.194;2023-04-10T03:04:56;91207.53;;;7.42;84.52
5952;BME280;3001;42.622;23.194;2023-04-10T03:07:22;91202.66;;;7.40;85.05
5952;BME280;3001;42.622;23.194;2023-04-10T03:09:49;91207.44;;;7.47;84.04
5952;BME280;3001;42.622;23.194;2023-04-10T03:12:17;91206.13;;;7.49;84.59
5952;BME280;3001;42.622;23.194;2023-04-10T03:14:44;91211.00;;;7.51;84.25
5952;BME280;3001;42.622;23.194;2023-04-10T03:17:11;91213.00;;;7.54;84.28
5952;BME280;3001;42.622;23.194;2023-04-10T03:19:38;91216.66;;;7.53;84.19
5952;BME280;3001;42.622;23.194;2023-04-10T03:22:04;91221.09;;;7.66;84.14
5952;BME280;3001;42.622;23.194;2023-04-10T03:24:31;91220.72;;;7.72;84.07
5952;BME280;3001;42.622;23.194;2023-04-10T03:26:57;91226.19;;;7.71;83.61
5952;BME280;3001;42.622;23.194;2023-04-10T03:29:25;91213.91;;;7.63;83.69
5952;BME280;3001;42.622;23.194;2023-04-10T03:31:52;91223.94;;;7.51;84.05
5952;BME280;3001;42.622;23.194;2023-04-10T03:34:19;91213.88;;;7.49;84.24
5952;BME280;3001;42.622;23.194;2023-04-10T03:36:45;91220.59;;;7.50;84.36
5952;BME280;3001;42.622;23.194;2023-04-10T03:39:12;91224.13;;;7.54;84.07
5952;BME280;3001;42.622;23.194;2023-04-10T03:41:39;91220.28;;;7.52;84.30
5952;BME280;3001;42.622;23.194;2023-04-10T03:44:06;91226.47;;;7.37;84.57
5952;BME280;3001;42.622;23.194;2023-04-10T03:46:34;91218.44;;;7.39;84.64
5952;BME280;3001;42.622;23.194;2023-04-10T03:49:00;91223.88;;;7.37;84.89
5952;BME280;3001;42.622;23.194;2023-04-10T03:51:27;91224.53;;;7.29;85.68
5952;BME280;3001;42.622;23.194;2023-04-10T03:53:54;91226.44;;;7.24;86.23
5952;BME280;3001;42.622;23.194;2023-04-10T03:56:21;91215.75;;;7.30;86.19
5952;BME280;3001;42.622;23.194;2023-04-10T03:58:48;91225.50;;;7.33;86.35
5952;BME280;3001;42.622;23.194;2023-04-10T04:01:14;91229.88;;;7.33;86.17
5952;BME280;3001;42.622;23.194;2023-04-10T04:03:42;91230.53;;;7.25;86.86
5952;BME280;3001;42.622;23.194;2023-04-10T04:06:09;91235.78;;;7.20;86.99
5952;BME280;3001;42.622;23.194;2023-04-10T04:08:36;91232.41;;;7.19;87.28
5952;BME280;3001;42.622;23.194;2023-04-10T04:11:03;91240.53;;;7.13;87.89
5952;BME280;3001;42.622;23.194;2023-04-10T04:13:30;91242.44;;;7.07;88.93
5952;BME280;3001;42.622;23.194;2023-04-10T04:15:56;91243.75;;;7.05;89.78
5952;BME280;3001;42.622;23.194;2023-04-10T04:18:23;91239.91;;;7.21;89.25
5952;BME280;3001;42.622;23.194;2023-04-10T04:20:51;91244.63;;;7.14;89.95
5952;BME280;3001;42.622;23.194;2023-04-10T04:23:18;91247.16;;;7.19;90.40
5952;BME280;3001;42.622;23.194;2023-04-10T04:25:45;91242.63;;;7.29;90.52
5952;BME280;3001;42.622;23.194;2023-04-10T04:28:11;91251.47;;;7.42;90.70
5952;BME280;3001;42.622;23.194;2023-04-10T04:30:40;91257.88;;;7.44;90.88
5952;BME280;3001;42.622;23.194;2023-04-10T04:33:07;91262.34;;;7.57;91.03
5952;BME280;3001;42.622;23.194;2023-04-10T04:35:33;91263.28;;;7.61;91.42
5952;BME280;3001;42.622;23.194;2023-04-10T04:38:01;91257.69;;;7.73;91.64
5952;BME280;3001;42.622;23.194;2023-04-10T04:40:28;91267.09;;;7.82;91.60
5952;BME280;3001;42.622;23.194;2023-04-10T04:42:55;91255.16;;;7.86;91.72
5952;BME280;3001;42.622;23.194;2023-04-10T04:45:21;91259.34;;;7.96;91.27
5952;BME280;3001;42.622;23.194;2023-04-10T04:47:49;91258.88;;;7.94;92.02
5952;BME280;3001;42.622;23.194;2023-04-10T04:50:15;91268.09;;;8.00;91.55
5952;BME280;3001;42.622;23.194;2023-04-10T04:52:43;91263.56;;;8.24;90.44
5952;BME280;3001;42.622;23.194;2023-04-10T04:55:11;91270.56;;;8.37;89.64
5952;BME280;3001;42.622;23.194;2023-04-10T04:57:37;91263.84;;;8.36;90.05
5952;BME280;3001;42.622;23.194;2023-04-10T05:00:05;91276.78;;;8.36;89.99
5952;BME280;3001;42.622;23.194;2023-04-10T05:02:32;91278.91;;;8.47;89.87
5952;BME280;3001;42.622;23.194;2023-04-10T05:04:59;91275.34;;;8.43;89.78
5952;BME280;3001;42.622;23.194;2023-04-10T05:07:26;91275.28;;;8.48;89.54
5952;BME280;3001;42.622;23.194;2023-04-10T05:09:53;91274.03;;;8.59;89.26
5952;BME280;3001;42.622;23.194;2023-04-10T05:12:21;91267.31;;;8.58;88.99
5952;BME280;3001;42.622;23.194;2023-04-10T05:14:48;91274.69;;;8.64;89.01
5952;BME280;3001;42.622;23.194;2023-04-10T05:17:15;91277.38;;;8.59;88.92
5952;BME280;3001;42.622;23.194;2023-04-10T05:19:42;91274.81;;;8.59;88.77
5952;BME280;3001;42.622;23.194;2023-04-10T05:22:08;91277.38;;;8.59;89.04
5952;BME280;3001;42.622;23.194;2023-04-10T05:24:35;91274.81;;;8.59;88.91
5952;BME280;3001;42.622;23.194;2023-04-10T05:27:02;91283.88;;;8.70;88.17
5952;BME280;3001;42.622;23.194;2023-04-10T05:29:30;91278.06;;;8.78;87.50
5952;BME280;3001;42.622;23.194;2023-04-10T05:31:57;91281.13;;;8.80;87.56
5952;BME280;3001;42.622;23.194;2023-04-10T05:34:23;91287.44;;;8.74;87.67
5952;BME280;3001;42.622;23.194;2023-04-10T05:36:50;91279.97;;;8.73;87.38
5952;BME280;3001;42.622;23.194;2023-04-10T05:39:17;91279.78;;;8.69;87.76
5952;BME280;3001;42.622;23.194;2023-04-10T05:41:43;91288.31;;;8.70;87.96
5952;BME280;3001;42.622;23.194;2023-04-10T05:44:10;91288.13;;;8.66;88.25
5952;BME280;3001;42.622;23.194;2023-04-10T05:46:38;91281.88;;;8.67;88.32
5952;BME280;3001;42.622;23.194;2023-04-10T05:49:04;91274.41;;;8.79;87.84
5952;BME280;3001;42.622;23.194;2023-04-10T05:51:31;91282.22;;;8.88;87.79
5952;BME280;3001;42.622;23.194;2023-04-10T05:53:58;91273.25;;;8.85;88.36
5952;BME280;3001;42.622;23.194;2023-04-10T05:56:25;91273.44;;;8.89;87.81
5952;BME280;3001;42.622;23.194;2023-04-10T05:58:51;91282.31;;;8.96;87.12
5952;BME280;3001;42.622;23.194;2023-04-10T06:01:18;91280.72;;;9.00;86.65
5952;BME280;3001;42.622;23.194;2023-04-10T06:03:46;91269.44;;;9.05;86.78
5952;BME280;3001;42.622;23.194;2023-04-10T06:06:13;91270.44;;;9.09;85.50
5952;BME280;3001;42.622;23.194;2023-04-10T06:08:40;91273.88;;;9.04;85.91
5952;BME280;3001;42.622;23.194;2023-04-10T06:11:06;91279.06;;;9.04;86.20
5952;BME280;3001;42.622;23.194;2023-04-10T06:13:33;91281.81;;;9.08;86.12
5952;BME280;3001;42.622;23.194;2023-04-10T06:16:00;91281.63;;;9.18;85.17
5952;BME280;3001;42.622;23.194;2023-04-10T06:18:26;91275.38;;;9.19;85.37
5952;BME280;3001;42.622;23.194;2023-04-10T06:20:54;91274.56;;;9.10;86.41
5952;BME280;3001;42.622;23.194;2023-04-10T06:23:22;91282.22;;;9.15;86.21
5952;BME280;3001;42.622;23.194;2023-04-10T06:25:49;91281.69;;;9.26;86.13
5952;BME280;3001;42.622;23.194;2023-04-10T06:28:15;91280.16;;;9.25;86.71
5952;BME280;3001;42.622;23.194;2023-04-10T06:30:42;91280.66;;;9.27;86.90
5952;BME280;3001;42.622;23.194;2023-04-10T06:33:09;91280.06;;;9.30;86.70
5952;BME280;3001;42.622;23.194;2023-04-10T06:35:35;91274.75;;;9.35;86.93
5952;BME280;3001;42.622;23.194;2023-04-10T06:38:04;91274.00;;;9.35;86.31
5952;BME280;3001;42.622;23.194;2023-04-10T06:40:30;91274.34;;;9.42;86.36
5952;BME280;3001;42.622;23.194;2023-04-10T06:42:58;91279.13;;;9.48;85.90
5952;BME280;3001;42.622;23.194;2023-04-10T06:45:25;91279.50;;;9.55;85.73
5952;BME280;3001;42.622;23.194;2023-04-10T06:47:52;91288.41;;;9.63;86.14
5952;BME280;3001;42.622;23.194;2023-04-10T06:50:18;91277.16;;;9.67;86.19
5952;BME280;3001;42.622;23.194;2023-04-10T06:52:46;91279.50;;;9.77;87.11
5952;BME280;3001;42.622;23.194;2023-04-10T06:55:14;91272.09;;;9.84;87.12
5952;BME280;3001;42.622;23.194;2023-04-10T06:57:41;91272.56;;;10.08;86.53
5952;BME280;3001;42.622;23.194;2023-04-10T07:00:09;91279.66;;;10.25;86.45
5952;BME280;3001;42.622;23.194;2023-04-10T07:02:35;91275.28;;;10.33;85.65
5952;BME280;3001;42.622;23.194;2023-04-10T07:05:02;91278.09;;;10.45;84.14
5952;BME280;3001;42.622;23.194;2023-04-10T07:07:29;91287.88;;;10.48;83.41
5952;BME280;3001;42.622;23.194;2023-04-10T07:09:57;91282.00;;;10.65;83.27
5952;BME280;3001;42.622;23.194;2023-04-10T07:12:25;91292.88;;;10.75;80.58
5952;BME280;3001;42.622;23.194;2023-04-10T07:14:52;91279.00;;;10.88;81.86
5952;BME280;3001;42.622;23.194;2023-04-10T07:17:18;91289.88;;;10.99;80.54
5952;BME280;3001;42.622;23.194;2023-04-10T07:19:45;91282.28;;;11.11;79.03
5952;BME280;3001;42.622;23.194;2023-04-10T07:22:12;91283.38;;;11.27;78.46
5952;BME280;3001;42.622;23.194;2023-04-10T07:24:39;91287.50;;;11.19;78.19
5952;BME280;3001;42.622;23.194;2023-04-10T07:27:05;91281.38;;;11.32;76.62
5952;BME280;3001;42.622;23.194;2023-04-10T07:29:33;91284.16;;;11.44;76.57
5952;BME280;3001;42.622;23.194;2023-04-10T07:32:00;91284.03;;;11.58;76.06
5952;BME280;3001;42.622;23.194;2023-04-10T07:34:27;91286.03;;;11.78;75.73
5952;BME280;3001;42.622;23.194;2023-04-10T07:36:53;91290.16;;;11.87;75.18
5952;BME280;3001;42.622;23.194;2023-04-10T07:39:20;91293.53;;;11.79;75.00
5952;BME280;3001;42.622;23.194;2023-04-10T07:41:47;91296.88;;;11.88;73.76
5952;BME280;3001;42.622;23.194;2023-04-10T07:44:13;91295.06;;;11.97;73.87
5952;BME280;3001;42.622;23.194;2023-04-10T07:46:43;91294.44;;;12.00;72.38
5952;BME280;3001;42.622;23.194;2023-04-10T07:49:09;91298.41;;;11.98;73.10
5952;BME280;3001;42.622;23.194;2023-04-10T07:51:36;91290.78;;;11.93;73.17
5952;BME280;3001;42.622;23.194;2023-04-10T07:54:03;91290.00;;;11.84;73.90
5952;BME280;3001;42.622;23.194;2023-04-10T07:56:30;91289.53;;;11.82;72.47
5952;BME280;3001;42.622;23.194;2023-04-10T07:58:58;91300.41;;;11.92;73.98
5952;BME280;3001;42.622;23.194;2023-04-10T08:01:25;91287.09;;;12.02;74.00
5952;BME280;3001;42.622;23.194;2023-04-10T08:03:54;91287.97;;;12.14;74.38
5952;BME280;3001;42.622;23.194;2023-04-10T08:06:21;91289.50;;;12.24;72.97
5952;BME280;3001;42.622;23.194;2023-04-10T08:08:48;91287.50;;;12.21;71.47
5952;BME280;3001;42.622;23.194;2023-04-10T08:11:24;91283.94;;;12.42;69.74
5952;BME280;3001;42.622;23.194;2023-04-10T08:13:51;91295.72;;;12.57;70.83
5952;BME280;3001;42.622;23.194;2023-04-10T08:16:22;91289.94;;;12.26;71.45
5952;BME280;3001;42.622;23.194;2023-04-10T08:18:49;91293.22;;;12.60;69.93
5952;BME280;3001;42.622;23.194;2023-04-10T08:21:17;91284.44;;;12.73;70.49
5952;BME280;3001;42.622;23.194;2023-04-10T08:23:43;91294.22;;;12.93;69.96
5952;BME280;3001;42.622;23.194;2023-04-10T08:26:11;91287.97;;;13.15;69.44
5952;BME280;3001;42.622;23.194;2023-04-10T08:28:37;91295.19;;;13.18;68.61
5952;BME280;3001;42.622;23.194;2023-04-10T08:31:05;91291.75;;;13.26;68.83
5952;BME280;3001;42.622;23.194;2023-04-10T08:33:31;91291.84;;;13.58;70.12
5952;BME280;3001;42.622;23.194;2023-04-10T08:35:58;91288.78;;;13.77;68.43
5952;BME280;3001;42.622;23.194;2023-04-10T08:38:26;91288.66;;;13.93;65.96
5952;BME280;3001;42.622;23.194;2023-04-10T08:40:53;91279.06;;;13.85;65.80
5952;BME280;3001;42.622;23.194;2023-04-10T08:43:20;91289.88;;;13.96;65.42
5952;BME280;3001;42.622;23.194;2023-04-10T08:45:46;91280.50;;;13.95;65.38
5952;BME280;3001;42.622;23.194;2023-04-10T08:48:15;91280.94;;;13.97;64.89
5952;BME280;3001;42.622;23.194;2023-04-10T08:50:44;91278.06;;;14.10;66.04
5952;BME280;3001;42.622;23.194;2023-04-10T08:53:13;91286.66;;;14.31;64.62
5952;BME280;3001;42.622;23.194;2023-04-10T08:55:43;91286.41;;;14.57;64.51
5952;BME280;3001;42.622;23.194;2023-04-10T08:58:10;91290.97;;;14.60;62.50
5952;BME280;3001;42.622;23.194;2023-04-10T09:00:38;91289.38;;;14.67;61.56
5952;BME280;3001;42.622;23.194;2023-04-10T09:03:07;91297.78;;;14.85;61.25
5952;BME280;3001;42.622;23.194;2023-04-10T09:05:36;91275.06;;;14.65;62.66
5952;BME280;3001;42.622;23.194;2023-04-10T09:08:02;91295.25;;;14.64;60.22
5952;BME280;3001;42.622;23.194;2023-04-10T09:10:29;91287.94;;;14.70;60.95
5952;BME280;3001;42.622;23.194;2023-04-10T09:12:57;91294.06;;;14.74;61.84
5952;BME280;3001;42.622;23.194;2023-04-10T09:15:24;91286.63;;;14.64;61.40
5952;BME280;3001;42.622;23.194;2023-04-10T09:17:58;91292.25;;;14.42;59.90
5952;BME280;3001;42.622;23.194;2023-04-10T09:20:28;91283.75;;;14.45;60.01
5952;BME280;3001;42.622;23.194;2023-04-10T09:22:55;91282.22;;;14.44;60.60
5952;BME280;3001;42.622;23.194;2023-04-10T09:25:30;91284.31;;;14.18;60.38
5952;BME280;3001;42.622;23.194;2023-04-10T09:28:03;91283.72;;;14.12;60.31
5952;BME280;3001;42.622;23.194;2023-04-10T09:30:35;91281.28;;;14.16;62.13
5952;BME280;3001;42.622;23.194;2023-04-10T09:33:02;91273.28;;;14.12;60.61
5952;BME280;3001;42.622;23.194;2023-04-10T09:35:36;91273.16;;;14.09;61.00
5952;BME280;3001;42.622;23.194;2023-04-10T09:38:13;91277.38;;;14.01;62.00
5952;BME280;3001;42.622;23.194;2023-04-10T09:40:41;91278.84;;;14.11;61.34
5952;BME280;3001;42.622;23.194;2023-04-10T09:43:24;91286.53;;;14.07;62.22
5952;BME280;3001;42.622;23.194;2023-04-10T09:45:53;91273.63;;;14.11;60.94
5952;BME280;3001;42.622;23.194;2023-04-10T09:48:21;91278.72;;;14.07;59.85
5952;BME280;3001;42.622;23.194;2023-04-10T09:50:49;91292.59;;;14.20;60.16
5952;BME280;3001;42.622;23.194;2023-04-10T09:53:17;91276.84;;;14.08;58.84
5952;BME280;3001;42.622;23.194;2023-04-10T09:55:45;91280.44;;;14.03;59.51
5952;BME280;3001;42.622;23.194;2023-04-10T09:58:13;91286.31;;;13.80;59.75
5952;BME280;3001;42.622;23.194;2023-04-10T10:00:43;91289.69;;;13.60;61.88
5952;BME280;3001;42.622;23.194;2023-04-10T10:03:11;91265.75;;;13.38;62.14
5952;BME280;3001;42.622;23.194;2023-04-10T10:05:40;91276.28;;;13.41;63.42
5952;BME280;3001;42.622;23.194;2023-04-10T10:08:08;91274.72;;;13.49;64.09
5952;BME280;3001;42.622;23.194;2023-04-10T10:10:38;91274.22;;;13.55;63.33
5952;BME280;3001;42.622;23.194;2023-04-10T10:13:06;91270.03;;;13.63;63.78
5952;BME280;3001;42.622;23.194;2023-04-10T10:15:36;91260.59;;;13.70;63.14
5952;BME280;3001;42.622;23.194;2023-04-10T10:18:09;91274.47;;;13.82;61.84
5952;BME280;3001;42.622;23.194;2023-04-10T10:20:43;91264.91;;;13.86;61.84
5952;BME280;3001;42.622;23.194;2023-04-10T10:23:11;91275.38;;;13.98;60.95
5952;BME280;3001;42.622;23.194;2023-04-10T10:25:38;91265.28;;;13.97;62.79
5952;BME280;3001;42.622;23.194;2023-04-10T10:28:05;91269.22;;;14.03;60.04
5952;BME280;3001;42.622;23.194;2023-04-10T10:30:33;91264.94;;;13.98;61.21
5952;BME280;3001;42.622;23.194;2023-04-10T10:33:02;91261.59;;;13.98;61.11
5952;BME280;3001;42.622;23.194;2023-04-10T10:35:33;91265.28;;;13.97;61.42
5952;BME280;3001;42.622;23.194;2023-04-10T10:38:01;91263.53;;;13.89;62.97
5952;BME280;3001;42.622;23.194;2023-04-10T10:40:30;91255.59;;;13.97;61.23
5952;BME280;3001;42.622;23.194;2023-04-10T10:43:09;91252.53;;;13.95;62.54
5952;BME280;3001;42.622;23.194;2023-04-10T10:45:41;91240.81;;;14.01;60.46
5952;BME280;3001;42.622;23.194;2023-04-10T10:48:09;91246.59;;;14.39;60.75
5952;BME280;3001;42.622;23.194;2023-04-10T10:50:54;91253.38;;;14.40;57.83
5952;BME280;3001;42.622;23.194;2023-04-10T10:53:36;91252.59;;;14.40;56.53
5952;BME280;3001;42.622;23.194;2023-04-10T10:56:33;91245.13;;;14.18;55.95
5952;BME280;3001;42.622;23.194;2023-04-10T10:59:00;91235.97;;;14.12;55.65
5952;BME280;3001;42.622;23.194;2023-04-10T11:01:27;91234.38;;;14.19;57.26
5952;BME280;3001;42.622;23.194;2023-04-10T11:03:54;91213.94;;;14.33;59.05
5952;BME280;3001;42.622;23.194;2023-04-10T11:06:49;91230.88;;;14.72;57.55
5952;BME280;3001;42.622;23.194;2023-04-10T11:09:44;91220.63;;;14.79;55.80
5952;BME280;3001;42.622;23.194;2023-04-10T11:12:11;91221.94;;;14.97;57.74
5952;BME280;3001;42.622;23.194;2023-04-10T11:14:39;91224.34;;;15.02;55.05
5952;BME280;3001;42.622;23.194;2023-04-10T11:17:06;91231.75;;;15.12;54.80
5952;BME280;3001;42.622;23.194;2023-04-10T11:19:56;91227.38;;;15.04;55.95
5952;BME280;3001;42.622;23.194;2023-04-10T11:22:26;91219.09;;;15.14;55.64
5952;BME280;3001;42.622;23.194;2023-04-10T11:25:02;91216.91;;;15.40;55.75
5952;BME280;3001;42.622;23.194;2023-04-10T11:27:42;91217.75;;;15.44;56.05
5952;BME280;3001;42.622;23.194;2023-04-10T11:30:33;91213.69;;;15.58;57.60
5952;BME280;3001;42.622;23.194;2023-04-10T11:33:01;91216.66;;;15.57;55.07
5952;BME280;3001;42.622;23.194;2023-04-10T11:35:29;91216.66;;;15.45;54.62
5952;BME280;3001;42.622;23.194;2023-04-10T11:38:12;91203.03;;;15.51;55.53
5952;BME280;3001;42.622;23.194;2023-04-10T11:40:59;91199.00;;;15.54;55.00
5952;BME280;3001;42.622;23.194;2023-04-10T11:43:27;91216.22;;;15.55;52.35
5952;BME280;3001;42.622;23.194;2023-04-10T11:46:06;91205.91;;;15.34;53.78
5952;BME280;3001;42.622;23.194;2023-04-10T11:48:33;91211.44;;;15.21;54.04
5952;BME280;3001;42.622;23.194;2023-04-10T11:51:11;91209.72;;;15.13;54.86
5952;BME280;3001;42.622;23.194;2023-04-10T11:53:40;91211.72;;;14.92;59.08
5952;BME280;3001;42.622;23.194;2023-04-10T11:56:15;91212.66;;;14.51;63.59
5952;BME280;3001;42.622;23.194;2023-04-10T11:58:42;91207.53;;;14.31;66.72
5952;BME280;3001;42.622;23.194;2023-04-10T12:01:08;91190.84;;;14.03;69.14
5952;BME280;3001;42.622;23.194;2023-04-10T12:03:39;91187.38;;;13.67;70.99
5952;BME280;3001;42.622;23.194;2023-04-10T12:06:08;91190.44;;;13.69;73.38
5952;BME280;3001;42.622;23.194;2023-04-10T12:08:37;91185.28;;;13.60;74.97
5952;BME280;3001;42.622;23.194;2023-04-10T12:11:06;91174.00;;;13.68;74.79
5952;BME280;3001;42.622;23.194;2023-04-10T12:13:33;91167.09;;;13.84;72.98
5952;BME280;3001;42.622;23.194;2023-04-10T12:16:02;91180.19;;;13.96;69.23
5952;BME280;3001;42.622;23.194;2023-04-10T12:18:29;91174.69;;;13.77;66.48
5952;BME280;3001;42.622;23.194;2023-04-10T12:20:57;91175.72;;;13.64;66.55
5952;BME280;3001;42.622;23.194;2023-04-10T12:23:25;91185.13;;;13.77;65.11
5952;BME280;3001;42.622;23.194;2023-04-10T12:25:58;91187.09;;;13.80;68.14
5952;BME280;3001;42.622;23.194;2023-04-10T12:28:33;91170.78;;;13.83;68.48
5952;BME280;3001;42.622;23.194;2023-04-10T12:31:00;91172.59;;;13.71;61.59
5952;BME280;3001;42.622;23.194;2023-04-10T12:33:28;91179.84;;;13.65;63.29
5952;BME280;3001;42.622;23.194;2023-04-10T12:35:54;91177.38;;;13.69;62.95
5952;BME280;3001;42.622;23.194;2023-04-10T12:38:34;91182.22;;;13.58;62.90
5952;BME280;3001;42.622;23.194;2023-04-10T12:41:02;91193.69;;;13.25;64.65
5952;BME280;3001;42.622;23.194;2023-04-10T12:43:30;91195.91;;;13.14;65.73
5952;BME280;3001;42.622;23.194;2023-04-10T12:45:59;91208.00;;;12.90;68.21
5952;BME280;3001;42.622;23.194;2023-04-10T12:48:26;91197.94;;;12.80;69.64
5952;BME280;3001;42.622;23.194;2023-04-10T12:50:53;91191.16;;;12.87;71.51
5952;BME280;3001;42.622;23.194;2023-04-10T12:53:20;91206.03;;;12.87;72.59
5952;BME280;3001;42.622;23.194;2023-04-10T12:56:01;91199.09;;;12.99;73.24
5952;BME280;3001;42.622;23.194;2023-04-10T12:58:28;91183.00;;;12.89;74.12
5952;BME280;3001;42.622;23.194;2023-04-10T13:01:01;91195.59;;;12.87;75.78
5952;BME280;3001;42.622;23.194;2023-04-10T13:03:28;91201.88;;;12.94;76.16
5952;BME280;3001;42.622;23.194;2023-04-10T13:05:55;91202.34;;;12.88;79.13
5952;BME280;3001;42.622;23.194;2023-04-10T13:08:22;91183.41;;;12.79;81.09
5952;BME280;3001;42.622;23.194;2023-04-10T13:10:48;91184.53;;;12.90;81.23
5952;BME280;3001;42.622;23.194;2023-04-10T13:13:16;91178.59;;;13.10;80.66
5952;BME280;3001;42.622;23.194;2023-04-10T13:15:43;91180.06;;;13.19;80.73
5952;BME280;3001;42.622;23.194;2023-04-10T13:18:11;91178.09;;;13.16;80.89
5952;BME280;3001;42.622;23.194;2023-04-10T13:20:39;91175.00;;;13.23;81.47
5952;BME280;3001;42.622;23.194;2023-04-10T13:23:06;91170.66;;;13.27;80.21
5952;BME280;3001;42.622;23.194;2023-04-10T13:25:35;91169.38;;;13.33;79.73
5952;BME280;3001;42.622;23.194;2023-04-10T13:28:03;91166.78;;;13.53;77.37